sensor_id;sensor_type;location;lat;lon;timestamp;P1;durP1;ratioP1;P2;durP2;ratioP2
74995;SDS011;63545;51.690;5.202;2023-08-17T00:00:47;9.67;;;2.57;;
74995;SDS011;63545;51.690;5.202;2023-08-17T00:03:12;5.10;;;2.77;;
74995;SDS011;63545;51.690;5.202;2023-08-17T00:05:38;6.50;;;2.70;;
74995;SDS011;63545;51.690;5.202;2023-08-17T00:08:04;7.65;;;3.08;;
74995;SDS011;63545;51.690;5.202;2023-08-17T00:10:30;5.33;;;2.47;;
74995;SDS011;63545;51.690;5.202;2023-08-17T00:12:55;10.93;;;2.90;;
74995;SDS011;63545;51.690;5.202;2023-08-17T00:15:21;6.68;;;2.72;;
74995;SDS011;63545;51.690;5.202;2023-08-17T00:17:46;4.77;;;2.53;;
74995;SDS011;63545;51.690;5.202;2023-08-17T00:20:12;6.87;;;2.70;;
74995;SDS011;63545;51.690;5.202;2023-08-17T00:22:38;8.10;;;2.67;;
74995;SDS011;63545;51.690;5.202;2023-08-17T00:25:03;7.60;;;2.80;;
74995;SDS011;63545;51.690;5.202;2023-08-17T00:27:29;8.07;;;2.80;;
74995;SDS011;63545;51.690;5.202;2023-08-17T00:29:56;9.95;;;2.97;;
74995;SDS011;63545;51.690;5.202;2023-08-17T00:32:22;6.43;;;2.90;;
74995;SDS011;63545;51.690;5.202;2023-08-17T00:34:47;6.60;;;2.30;;
74995;SDS011;63545;51.690;5.202;2023-08-17T00:37:12;6.40;;;2.60;;
74995;SDS011;63545;51.690;5.202;2023-08-17T00:39:38;7.47;;;2.83;;
74995;SDS011;63545;51.690;5.202;2023-08-17T00:42:03;5.50;;;2.60;;
74995;SDS011;63545;51.690;5.202;2023-08-17T00:44:29;7.13;;;2.60;;
74995;SDS011;63545;51.690;5.202;2023-08-17T00:46:54;6.17;;;2.67;;
74995;SDS011;63545;51.690;5.202;2023-08-17T00:49:20;6.32;;;2.80;;
74995;SDS011;63545;51.690;5.202;2023-08-17T00:51:45;7.40;;;2.60;;
74995;SDS011;63545;51.690;5.202;2023-08-17T00:54:11;7.90;;;2.60;;
74995;SDS011;63545;51.690;5.202;2023-08-17T00:56:37;7.65;;;2.75;;
74995;SDS011;63545;51.690;5.202;2023-08-17T00:59:02;8.43;;;2.83;;
74995;SDS011;63545;51.690;5.202;2023-08-17T01:01:28;8.33;;;2.90;;
74995;SDS011;63545;51.690;5.202;2023-08-17T01:03:53;8.25;;;3.08;;
74995;SDS011;63545;51.690;5.202;2023-08-17T01:06:18;9.10;;;2.73;;
74995;SDS011;63545;51.690;5.202;2023-08-17T01:08:44;7.83;;;2.47;;
74995;SDS011;63545;51.690;5.202;2023-08-17T01:14:01;8.50;;;2.72;;
74995;SDS011;63545;51.690;5.202;2023-08-17T01:19:24;5.80;;;2.60;;
74995;SDS011;63545;51.690;5.202;2023-08-17T01:21:51;9.13;;;2.80;;
74995;SDS011;63545;51.690;5.202;2023-08-17T01:24:29;5.28;;;2.42;;
74995;SDS011;63545;51.690;5.202;2023-08-17T01:26:54;5.60;;;2.60;;
74995;SDS011;63545;51.690;5.202;2023-08-17T01:29:19;7.33;;;2.80;;
74995;SDS011;63545;51.690;5.202;2023-08-17T01:34:11;4.13;;;2.23;;
74995;SDS011;63545;51.690;5.202;2023-08-17T01:36:44;4.25;;;2.30;;
74995;SDS011;63545;51.690;5.202;2023-08-17T01:39:12;5.93;;;2.30;;
74995;SDS011;63545;51.690;5.202;2023-08-17T01:41:38;6.65;;;2.67;;
74995;SDS011;63545;51.690;5.202;2023-08-17T01:44:05;4.68;;;2.50;;
74995;SDS011;63545;51.690;5.202;2023-08-17T01:46:31;5.33;;;2.57;;
74995;SDS011;63545;51.690;5.202;2023-08-17T01:48:57;8.63;;;2.78;;
74995;SDS011;63545;51.690;5.202;2023-08-17T01:51:23;6.82;;;2.42;;
74995;SDS011;63545;51.690;5.202;2023-08-17T01:53:49;5.77;;;2.50;;
74995;SDS011;63545;51.690;5.202;2023-08-17T01:56:14;4.93;;;2.53;;
74995;SDS011;63545;51.690;5.202;2023-08-17T01:58:40;5.00;;;2.23;;
74995;SDS011;63545;51.690;5.202;2023-08-17T02:01:05;6.73;;;2.60;;
74995;SDS011;63545;51.690;5.202;2023-08-17T02:03:31;8.60;;;2.57;;
74995;SDS011;63545;51.690;5.202;2023-08-17T02:05:57;5.40;;;2.45;;
74995;SDS011;63545;51.690;5.202;2023-08-17T02:08:22;8.17;;;2.40;;
74995;SDS011;63545;51.690;5.202;2023-08-17T02:10:47;6.20;;;2.80;;
74995;SDS011;63545;51.690;5.202;2023-08-17T02:13:13;8.03;;;2.70;;
74995;SDS011;63545;51.690;5.202;2023-08-17T02:15:39;7.33;;;2.63;;
74995;SDS011;63545;51.690;5.202;2023-08-17T02:18:05;7.32;;;2.20;;
74995;SDS011;63545;51.690;5.202;2023-08-17T02:20:30;5.57;;;2.63;;
74995;SDS011;63545;51.690;5.202;2023-08-17T02:22:56;6.03;;;2.50;;
74995;SDS011;63545;51.690;5.202;2023-08-17T02:25:21;6.82;;;2.88;;
74995;SDS011;63545;51.690;5.202;2023-08-17T02:27:46;3.77;;;2.17;;
74995;SDS011;63545;51.690;5.202;2023-08-17T02:30:12;6.87;;;2.80;;
74995;SDS011;63545;51.690;5.202;2023-08-17T02:32:38;6.13;;;2.60;;
74995;SDS011;63545;51.690;5.202;2023-08-17T02:35:03;6.07;;;2.27;;
74995;SDS011;63545;51.690;5.202;2023-08-17T02:37:29;6.53;;;2.30;;
74995;SDS011;63545;51.690;5.202;2023-08-17T02:39:54;7.90;;;2.50;;
74995;SDS011;63545;51.690;5.202;2023-08-17T02:42:19;5.17;;;2.50;;
74995;SDS011;63545;51.690;5.202;2023-08-17T02:44:45;4.82;;;2.50;;
74995;SDS011;63545;51.690;5.202;2023-08-17T02:47:10;4.33;;;2.17;;
74995;SDS011;63545;51.690;5.202;2023-08-17T02:49:36;6.23;;;2.60;;
74995;SDS011;63545;51.690;5.202;2023-08-17T02:52:01;7.53;;;2.90;;
74995;SDS011;63545;51.690;5.202;2023-08-17T02:54:26;5.35;;;2.50;;
74995;SDS011;63545;51.690;5.202;2023-08-17T02:56:52;6.43;;;2.70;;
74995;SDS011;63545;51.690;5.202;2023-08-17T02:59:17;10.37;;;2.97;;
74995;SDS011;63545;51.690;5.202;2023-08-17T03:01:44;7.67;;;2.70;;
74995;SDS011;63545;51.690;5.202;2023-08-17T03:04:10;7.95;;;2.75;;
74995;SDS011;63545;51.690;5.202;2023-08-17T03:06:35;7.10;;;2.60;;
74995;SDS011;63545;51.690;5.202;2023-08-17T03:09:00;7.13;;;2.30;;
74995;SDS011;63545;51.690;5.202;2023-08-17T03:11:26;4.97;;;2.30;;
74995;SDS011;63545;51.690;5.202;2023-08-17T03:13:51;4.37;;;2.30;;
74995;SDS011;63545;51.690;5.202;2023-08-17T03:16:17;5.50;;;2.40;;
74995;SDS011;63545;51.690;5.202;2023-08-17T03:18:42;7.20;;;2.57;;
74995;SDS011;63545;51.690;5.202;2023-08-17T03:21:08;5.67;;;2.57;;
74995;SDS011;63545;51.690;5.202;2023-08-17T03:23:33;6.43;;;2.57;;
74995;SDS011;63545;51.690;5.202;2023-08-17T03:25:59;4.53;;;2.63;;
74995;SDS011;63545;51.690;5.202;2023-08-17T03:28:24;8.23;;;2.60;;
74995;SDS011;63545;51.690;5.202;2023-08-17T03:30:55;7.40;;;2.95;;
74995;SDS011;63545;51.690;5.202;2023-08-17T03:33:20;8.70;;;2.97;;
74995;SDS011;63545;51.690;5.202;2023-08-17T03:35:46;6.67;;;3.00;;
74995;SDS011;63545;51.690;5.202;2023-08-17T03:38:12;6.43;;;2.90;;
74995;SDS011;63545;51.690;5.202;2023-08-17T03:40:37;5.43;;;2.83;;
74995;SDS011;63545;51.690;5.202;2023-08-17T03:43:02;6.63;;;2.83;;
74995;SDS011;63545;51.690;5.202;2023-08-17T03:45:28;5.57;;;3.17;;
74995;SDS011;63545;51.690;5.202;2023-08-17T03:47:55;7.93;;;2.70;;
74995;SDS011;63545;51.690;5.202;2023-08-17T03:50:20;5.17;;;2.60;;
74995;SDS011;63545;51.690;5.202;2023-08-17T03:52:46;6.68;;;2.83;;
74995;SDS011;63545;51.690;5.202;2023-08-17T03:55:11;7.87;;;2.80;;
74995;SDS011;63545;51.690;5.202;2023-08-17T03:57:36;6.40;;;2.80;;
74995;SDS011;63545;51.690;5.202;2023-08-17T04:00:02;7.53;;;3.00;;
74995;SDS011;63545;51.690;5.202;2023-08-17T04:02:28;9.48;;;2.60;;
74995;SDS011;63545;51.690;5.202;2023-08-17T04:04:53;7.27;;;3.00;;
74995;SDS011;63545;51.690;5.202;2023-08-17T04:07:21;6.00;;;2.67;;
74995;SDS011;63545;51.690;5.202;2023-08-17T04:09:50;5.47;;;2.50;;
74995;SDS011;63545;51.690;5.202;2023-08-17T04:12:15;7.90;;;2.83;;
74995;SDS011;63545;51.690;5.202;2023-08-17T04:14:40;5.17;;;2.60;;
74995;SDS011;63545;51.690;5.202;2023-08-17T04:17:06;5.57;;;2.60;;
74995;SDS011;63545;51.690;5.202;2023-08-17T04:19:31;8.30;;;2.20;;
74995;SDS011;63545;51.690;5.202;2023-08-17T04:21:57;7.43;;;2.93;;
74995;SDS011;63545;51.690;5.202;2023-08-17T04:24:23;7.57;;;3.00;;
74995;SDS011;63545;51.690;5.202;2023-08-17T04:26:48;12.27;;;3.17;;
74995;SDS011;63545;51.690;5.202;2023-08-17T04:29:14;9.63;;;2.90;;
74995;SDS011;63545;51.690;5.202;2023-08-17T04:31:39;4.27;;;2.67;;
74995;SDS011;63545;51.690;5.202;2023-08-17T04:34:05;4.50;;;2.90;;
74995;SDS011;63545;51.690;5.202;2023-08-17T04:36:30;7.80;;;2.70;;
74995;SDS011;63545;51.690;5.202;2023-08-17T04:38:56;8.77;;;2.60;;
74995;SDS011;63545;51.690;5.202;2023-08-17T04:41:21;5.10;;;2.57;;
74995;SDS011;63545;51.690;5.202;2023-08-17T04:43:46;8.77;;;2.78;;
74995;SDS011;63545;51.690;5.202;2023-08-17T04:46:14;5.27;;;2.87;;
74995;SDS011;63545;51.690;5.202;2023-08-17T04:48:39;7.30;;;2.40;;
74995;SDS011;63545;51.690;5.202;2023-08-17T04:51:05;10.93;;;2.83;;
74995;SDS011;63545;51.690;5.202;2023-08-17T04:53:30;10.17;;;2.50;;
74995;SDS011;63545;51.690;5.202;2023-08-17T04:55:55;8.47;;;3.10;;
74995;SDS011;63545;51.690;5.202;2023-08-17T04:58:21;6.70;;;2.63;;
74995;SDS011;63545;51.690;5.202;2023-08-17T05:00:47;5.35;;;2.92;;
74995;SDS011;63545;51.690;5.202;2023-08-17T05:03:13;9.23;;;2.70;;
74995;SDS011;63545;51.690;5.202;2023-08-17T05:05:38;7.03;;;2.87;;
74995;SDS011;63545;51.690;5.202;2023-08-17T05:08:03;9.33;;;3.00;;
74995;SDS011;63545;51.690;5.202;2023-08-17T05:10:29;6.27;;;2.60;;
74995;SDS011;63545;51.690;5.202;2023-08-17T05:12:54;11.27;;;3.00;;
74995;SDS011;63545;51.690;5.202;2023-08-17T05:15:20;10.88;;;2.72;;
74995;SDS011;63545;51.690;5.202;2023-08-17T05:17:45;5.53;;;2.60;;
74995;SDS011;63545;51.690;5.202;2023-08-17T05:20:11;7.73;;;3.10;;
74995;SDS011;63545;51.690;5.202;2023-08-17T05:22:37;5.97;;;2.90;;
74995;SDS011;63545;51.690;5.202;2023-08-17T05:25:03;5.73;;;2.80;;
74995;SDS011;63545;51.690;5.202;2023-08-17T05:27:29;6.30;;;2.90;;
74995;SDS011;63545;51.690;5.202;2023-08-17T05:29:54;5.57;;;2.63;;
74995;SDS011;63545;51.690;5.202;2023-08-17T05:32:19;4.87;;;2.97;;
74995;SDS011;63545;51.690;5.202;2023-08-17T05:34:46;7.90;;;2.67;;
74995;SDS011;63545;51.690;5.202;2023-08-17T05:37:11;9.32;;;3.20;;
74995;SDS011;63545;51.690;5.202;2023-08-17T05:39:37;9.13;;;2.93;;
74995;SDS011;63545;51.690;5.202;2023-08-17T05:42:03;10.82;;;3.00;;
74995;SDS011;63545;51.690;5.202;2023-08-17T05:44:28;7.67;;;3.10;;
74995;SDS011;63545;51.690;5.202;2023-08-17T05:46:53;6.60;;;2.87;;
74995;SDS011;63545;51.690;5.202;2023-08-17T05:49:19;9.00;;;3.20;;
74995;SDS011;63545;51.690;5.202;2023-08-17T05:51:44;7.07;;;3.30;;
74995;SDS011;63545;51.690;5.202;2023-08-17T05:54:09;10.77;;;3.10;;
74995;SDS011;63545;51.690;5.202;2023-08-17T05:56:35;6.53;;;3.20;;
74995;SDS011;63545;51.690;5.202;2023-08-17T05:59:00;6.37;;;2.70;;
74995;SDS011;63545;51.690;5.202;2023-08-17T06:01:26;9.03;;;3.13;;
74995;SDS011;63545;51.690;5.202;2023-08-17T06:03:51;9.35;;;3.28;;
74995;SDS011;63545;51.690;5.202;2023-08-17T06:06:17;6.67;;;3.17;;
74995;SDS011;63545;51.690;5.202;2023-08-17T06:08:42;5.13;;;3.10;;
74995;SDS011;63545;51.690;5.202;2023-08-17T06:11:07;7.27;;;3.00;;
74995;SDS011;63545;51.690;5.202;2023-08-17T06:13:33;6.67;;;2.90;;
74995;SDS011;63545;51.690;5.202;2023-08-17T06:16:00;9.43;;;3.13;;
74995;SDS011;63545;51.690;5.202;2023-08-17T06:18:25;11.80;;;3.13;;
74995;SDS011;63545;51.690;5.202;2023-08-17T06:20:50;7.87;;;2.80;;
74995;SDS011;63545;51.690;5.202;2023-08-17T06:23:18;7.75;;;3.05;;
74995;SDS011;63545;51.690;5.202;2023-08-17T06:25:44;8.48;;;2.90;;
74995;SDS011;63545;51.690;5.202;2023-08-17T06:28:09;10.13;;;3.47;;
74995;SDS011;63545;51.690;5.202;2023-08-17T06:30:35;9.83;;;3.17;;
74995;SDS011;63545;51.690;5.202;2023-08-17T06:33:00;7.05;;;3.03;;
74995;SDS011;63545;51.690;5.202;2023-08-17T06:35:26;7.53;;;3.00;;
74995;SDS011;63545;51.690;5.202;2023-08-17T06:37:51;6.43;;;3.40;;
74995;SDS011;63545;51.690;5.202;2023-08-17T06:40:18;5.47;;;2.40;;
74995;SDS011;63545;51.690;5.202;2023-08-17T06:42:44;8.00;;;2.87;;
74995;SDS011;63545;51.690;5.202;2023-08-17T06:45:09;9.33;;;3.30;;
74995;SDS011;63545;51.690;5.202;2023-08-17T06:47:35;10.55;;;3.22;;
74995;SDS011;63545;51.690;5.202;2023-08-17T06:50:01;11.63;;;3.50;;
74995;SDS011;63545;51.690;5.202;2023-08-17T06:52:26;8.53;;;3.30;;
74995;SDS011;63545;51.690;5.202;2023-08-17T06:54:51;9.40;;;2.83;;
74995;SDS011;63545;51.690;5.202;2023-08-17T06:57:17;7.63;;;3.20;;
74995;SDS011;63545;51.690;5.202;2023-08-17T06:59:42;8.53;;;2.90;;
74995;SDS011;63545;51.690;5.202;2023-08-17T07:02:10;9.25;;;2.85;;
74995;SDS011;63545;51.690;5.202;2023-08-17T07:04:36;10.73;;;3.23;;
74995;SDS011;63545;51.690;5.202;2023-08-17T07:07:01;5.73;;;2.73;;
74995;SDS011;63545;51.690;5.202;2023-08-17T07:09:27;8.03;;;2.80;;
74995;SDS011;63545;51.690;5.202;2023-08-17T07:11:53;12.95;;;2.92;;
74995;SDS011;63545;51.690;5.202;2023-08-17T07:14:18;6.57;;;2.90;;
74995;SDS011;63545;51.690;5.202;2023-08-17T07:16:44;8.67;;;3.07;;
74995;SDS011;63545;51.690;5.202;2023-08-17T07:19:09;4.43;;;2.40;;
74995;SDS011;63545;51.690;5.202;2023-08-17T07:21:35;10.02;;;3.20;;
74995;SDS011;63545;51.690;5.202;2023-08-17T07:24:10;11.17;;;2.60;;
74995;SDS011;63545;51.690;5.202;2023-08-17T07:26:36;8.65;;;2.83;;
74995;SDS011;63545;51.690;5.202;2023-08-17T07:29:02;8.03;;;3.33;;
74995;SDS011;63545;51.690;5.202;2023-08-17T07:31:27;12.23;;;2.60;;
74995;SDS011;63545;51.690;5.202;2023-08-17T07:33:53;6.20;;;2.88;;
74995;SDS011;63545;51.690;5.202;2023-08-17T07:36:18;6.47;;;2.73;;
74995;SDS011;63545;51.690;5.202;2023-08-17T07:38:43;7.03;;;2.90;;
74995;SDS011;63545;51.690;5.202;2023-08-17T07:41:09;10.13;;;2.80;;
74995;SDS011;63545;51.690;5.202;2023-08-17T07:43:34;7.33;;;2.80;;
74995;SDS011;63545;51.690;5.202;2023-08-17T07:45:59;6.57;;;2.60;;
74995;SDS011;63545;51.690;5.202;2023-08-17T07:48:25;6.53;;;2.90;;
74995;SDS011;63545;51.690;5.202;2023-08-17T07:50:50;10.07;;;2.92;;
74995;SDS011;63545;51.690;5.202;2023-08-17T07:53:17;8.07;;;3.10;;
74995;SDS011;63545;51.690;5.202;2023-08-17T07:55:43;6.68;;;2.90;;
74995;SDS011;63545;51.690;5.202;2023-08-17T07:58:08;9.60;;;3.07;;
74995;SDS011;63545;51.690;5.202;2023-08-17T08:00:33;8.13;;;2.93;;
74995;SDS011;63545;51.690;5.202;2023-08-17T08:02:59;6.32;;;3.10;;
74995;SDS011;63545;51.690;5.202;2023-08-17T08:05:24;5.77;;;3.00;;
74995;SDS011;63545;51.690;5.202;2023-08-17T08:07:49;9.83;;;2.90;;
74995;SDS011;63545;51.690;5.202;2023-08-17T08:10:15;7.33;;;3.10;;
74995;SDS011;63545;51.690;5.202;2023-08-17T08:12:40;8.60;;;3.10;;
74995;SDS011;63545;51.690;5.202;2023-08-17T08:15:06;5.65;;;2.90;;
74995;SDS011;63545;51.690;5.202;2023-08-17T08:17:31;5.17;;;2.83;;
74995;SDS011;63545;51.690;5.202;2023-08-17T08:19:57;7.60;;;3.23;;
74995;SDS011;63545;51.690;5.202;2023-08-17T08:22:23;8.82;;;2.97;;
74995;SDS011;63545;51.690;5.202;2023-08-17T08:24:48;11.20;;;3.23;;
74995;SDS011;63545;51.690;5.202;2023-08-17T08:27:14;8.00;;;3.50;;
74995;SDS011;63545;51.690;5.202;2023-08-17T08:29:39;8.67;;;3.00;;
74995;SDS011;63545;51.690;5.202;2023-08-17T08:32:04;8.03;;;3.13;;
74995;SDS011;63545;51.690;5.202;2023-08-17T08:34:30;8.07;;;3.47;;
74995;SDS011;63545;51.690;5.202;2023-08-17T08:36:55;14.13;;;3.80;;
74995;SDS011;63545;51.690;5.202;2023-08-17T08:39:21;7.80;;;3.40;;
74995;SDS011;63545;51.690;5.202;2023-08-17T08:41:46;10.47;;;4.00;;
74995;SDS011;63545;51.690;5.202;2023-08-17T08:44:12;10.13;;;3.87;;
74995;SDS011;63545;51.690;5.202;2023-08-17T08:46:37;10.27;;;3.80;;
74995;SDS011;63545;51.690;5.202;2023-08-17T08:49:06;9.80;;;3.50;;
74995;SDS011;63545;51.690;5.202;2023-08-17T08:51:34;11.27;;;4.15;;
74995;SDS011;63545;51.690;5.202;2023-08-17T08:54:03;6.10;;;3.20;;
74995;SDS011;63545;51.690;5.202;2023-08-17T08:56:32;8.05;;;3.70;;
74995;SDS011;63545;51.690;5.202;2023-08-17T08:59:01;7.10;;;3.50;;
74995;SDS011;63545;51.690;5.202;2023-08-17T09:01:28;10.23;;;3.55;;
74995;SDS011;63545;51.690;5.202;2023-08-17T09:03:55;11.48;;;3.47;;
74995;SDS011;63545;51.690;5.202;2023-08-17T09:06:21;10.90;;;3.63;;
74995;SDS011;63545;51.690;5.202;2023-08-17T09:08:47;7.63;;;3.93;;
74995;SDS011;63545;51.690;5.202;2023-08-17T09:11:13;6.07;;;3.75;;
74995;SDS011;63545;51.690;5.202;2023-08-17T09:13:38;8.07;;;3.87;;
74995;SDS011;63545;51.690;5.202;2023-08-17T09:16:04;8.57;;;3.73;;
74995;SDS011;63545;51.690;5.202;2023-08-17T09:18:29;11.52;;;3.17;;
74995;SDS011;63545;51.690;5.202;2023-08-17T09:20:55;11.33;;;3.70;;
74995;SDS011;63545;51.690;5.202;2023-08-17T09:23:21;7.18;;;3.55;;
74995;SDS011;63545;51.690;5.202;2023-08-17T09:25:47;7.30;;;3.60;;
74995;SDS011;63545;51.690;5.202;2023-08-17T09:28:15;8.27;;;3.58;;
74995;SDS011;63545;51.690;5.202;2023-08-17T09:30:53;10.73;;;3.85;;
74995;SDS011;63545;51.690;5.202;2023-08-17T09:33:19;8.68;;;3.65;;
74995;SDS011;63545;51.690;5.202;2023-08-17T09:35:45;6.35;;;3.70;;
74995;SDS011;63545;51.690;5.202;2023-08-17T09:38:11;7.20;;;3.77;;
74995;SDS011;63545;51.690;5.202;2023-08-17T09:40:36;7.90;;;4.33;;
74995;SDS011;63545;51.690;5.202;2023-08-17T09:43:02;11.03;;;3.97;;
74995;SDS011;63545;51.690;5.202;2023-08-17T09:45:27;8.70;;;4.20;;
74995;SDS011;63545;51.690;5.202;2023-08-17T09:47:54;10.02;;;4.55;;
74995;SDS011;63545;51.690;5.202;2023-08-17T09:50:22;9.67;;;4.20;;
74995;SDS011;63545;51.690;5.202;2023-08-17T09:52:47;8.25;;;4.28;;
74995;SDS011;63545;51.690;5.202;2023-08-17T09:55:18;9.43;;;4.03;;
74995;SDS011;63545;51.690;5.202;2023-08-17T09:57:44;11.00;;;4.43;;
74995;SDS011;63545;51.690;5.202;2023-08-17T10:00:10;9.40;;;4.20;;
74995;SDS011;63545;51.690;5.202;2023-08-17T10:02:36;16.23;;;4.40;;
74995;SDS011;63545;51.690;5.202;2023-08-17T10:05:01;13.57;;;4.60;;
74995;SDS011;63545;51.690;5.202;2023-08-17T10:07:29;15.90;;;5.40;;
74995;SDS011;63545;51.690;5.202;2023-08-17T10:10:04;15.07;;;4.95;;
74995;SDS011;63545;51.690;5.202;2023-08-17T10:12:32;14.10;;;5.88;;
74995;SDS011;63545;51.690;5.202;2023-08-17T10:15:02;13.50;;;5.13;;
74995;SDS011;63545;51.690;5.202;2023-08-17T10:17:30;13.82;;;5.80;;
74995;SDS011;63545;51.690;5.202;2023-08-17T10:20:00;15.80;;;5.30;;
74995;SDS011;63545;51.690;5.202;2023-08-17T10:22:27;17.63;;;6.20;;
74995;SDS011;63545;51.690;5.202;2023-08-17T10:24:54;11.68;;;5.80;;
74995;SDS011;63545;51.690;5.202;2023-08-17T10:27:21;12.27;;;5.77;;
74995;SDS011;63545;51.690;5.202;2023-08-17T10:29:46;9.93;;;5.10;;
74995;SDS011;63545;51.690;5.202;2023-08-17T10:32:12;15.65;;;6.68;;
74995;SDS011;63545;51.690;5.202;2023-08-17T10:34:38;13.00;;;6.53;;
74995;SDS011;63545;51.690;5.202;2023-08-17T10:37:04;12.55;;;6.55;;
74995;SDS011;63545;51.690;5.202;2023-08-17T10:39:29;14.87;;;6.77;;
74995;SDS011;63545;51.690;5.202;2023-08-17T10:41:56;12.05;;;6.20;;
74995;SDS011;63545;51.690;5.202;2023-08-17T10:47:42;12.53;;;6.00;;
74995;SDS011;63545;51.690;5.202;2023-08-17T10:50:06;15.73;;;6.70;;
74995;SDS011;63545;51.690;5.202;2023-08-17T10:52:49;16.25;;;6.82;;
74995;SDS011;63545;51.690;5.202;2023-08-17T10:55:15;18.55;;;6.10;;
74995;SDS011;63545;51.690;5.202;2023-08-17T10:57:41;11.32;;;5.57;;
74995;SDS011;63545;51.690;5.202;2023-08-17T11:02:38;15.45;;;6.20;;
74995;SDS011;63545;51.690;5.202;2023-08-17T11:05:04;15.70;;;6.53;;
74995;SDS011;63545;51.690;5.202;2023-08-17T11:07:42;15.05;;;6.13;;
74995;SDS011;63545;51.690;5.202;2023-08-17T11:12:43;13.10;;;6.90;;
74995;SDS011;63545;51.690;5.202;2023-08-17T11:15:09;18.42;;;6.65;;
74995;SDS011;63545;51.690;5.202;2023-08-17T11:17:34;17.67;;;7.40;;
74995;SDS011;63545;51.690;5.202;2023-08-17T11:20:00;13.07;;;7.00;;
74995;SDS011;63545;51.690;5.202;2023-08-17T11:22:25;16.52;;;6.78;;
74995;SDS011;63545;51.690;5.202;2023-08-17T11:24:50;14.90;;;7.57;;
74995;SDS011;63545;51.690;5.202;2023-08-17T11:27:16;12.40;;;6.97;;
74995;SDS011;63545;51.690;5.202;2023-08-17T11:29:41;12.57;;;7.10;;
74995;SDS011;63545;51.690;5.202;2023-08-17T11:32:08;16.87;;;7.47;;
74995;SDS011;63545;51.690;5.202;2023-08-17T11:34:35;20.13;;;8.13;;
74995;SDS011;63545;51.690;5.202;2023-08-17T11:37:01;16.58;;;7.60;;
74995;SDS011;63545;51.690;5.202;2023-08-17T11:39:26;12.80;;;7.43;;
74995;SDS011;63545;51.690;5.202;2023-08-17T11:41:51;15.63;;;7.13;;
74995;SDS011;63545;51.690;5.202;2023-08-17T11:44:18;17.02;;;7.18;;
74995;SDS011;63545;51.690;5.202;2023-08-17T11:46:46;13.32;;;7.32;;
74995;SDS011;63545;51.690;5.202;2023-08-17T11:49:12;14.07;;;8.00;;
74995;SDS011;63545;51.690;5.202;2023-08-17T11:51:37;16.17;;;7.63;;
74995;SDS011;63545;51.690;5.202;2023-08-17T11:54:04;19.50;;;7.73;;
74995;SDS011;63545;51.690;5.202;2023-08-17T11:56:32;14.50;;;7.95;;
74995;SDS011;63545;51.690;5.202;2023-08-17T11:58:58;13.70;;;7.35;;
74995;SDS011;63545;51.690;5.202;2023-08-17T12:01:23;14.10;;;7.67;;
74995;SDS011;63545;51.690;5.202;2023-08-17T12:03:49;15.90;;;8.30;;
74995;SDS011;63545;51.690;5.202;2023-08-17T12:06:15;14.18;;;7.78;;
74995;SDS011;63545;51.690;5.202;2023-08-17T12:08:50;15.00;;;8.47;;
74995;SDS011;63545;51.690;5.202;2023-08-17T12:11:16;16.45;;;7.68;;
74995;SDS011;63545;51.690;5.202;2023-08-17T12:13:42;13.55;;;7.65;;
74995;SDS011;63545;51.690;5.202;2023-08-17T12:16:14;16.17;;;7.30;;
74995;SDS011;63545;51.690;5.202;2023-08-17T12:18:39;15.70;;;7.55;;
74995;SDS011;63545;51.690;5.202;2023-08-17T12:21:09;16.17;;;7.80;;
74995;SDS011;63545;51.690;5.202;2023-08-17T12:23:34;13.07;;;8.20;;
74995;SDS011;63545;51.690;5.202;2023-08-17T12:25:59;14.97;;;8.30;;
74995;SDS011;63545;51.690;5.202;2023-08-17T12:28:25;18.60;;;8.60;;
74995;SDS011;63545;51.690;5.202;2023-08-17T12:30:57;16.00;;;8.13;;
74995;SDS011;63545;51.690;5.202;2023-08-17T12:33:26;17.60;;;8.57;;
74995;SDS011;63545;51.690;5.202;2023-08-17T12:35:51;17.50;;;8.98;;
74995;SDS011;63545;51.690;5.202;2023-08-17T12:38:17;16.47;;;8.43;;
74995;SDS011;63545;51.690;5.202;2023-08-17T12:40:42;15.23;;;8.50;;
74995;SDS011;63545;51.690;5.202;2023-08-17T12:43:07;14.67;;;8.13;;
74995;SDS011;63545;51.690;5.202;2023-08-17T12:45:33;17.87;;;8.73;;
74995;SDS011;63545;51.690;5.202;2023-08-17T12:47:59;15.50;;;8.87;;
74995;SDS011;63545;51.690;5.202;2023-08-17T12:50:24;16.98;;;8.60;;
74995;SDS011;63545;51.690;5.202;2023-08-17T12:52:50;15.47;;;8.73;;
74995;SDS011;63545;51.690;5.202;2023-08-17T12:55:15;15.70;;;8.75;;
74995;SDS011;63545;51.690;5.202;2023-08-17T12:57:41;17.60;;;8.90;;
74995;SDS011;63545;51.690;5.202;2023-08-17T13:00:06;15.83;;;9.00;;
74995;SDS011;63545;51.690;5.202;2023-08-17T13:02:32;16.60;;;9.18;;
74995;SDS011;63545;51.690;5.202;2023-08-17T13:04:57;22.30;;;9.07;;
74995;SDS011;63545;51.690;5.202;2023-08-17T13:07:23;18.17;;;9.03;;
74995;SDS011;63545;51.690;5.202;2023-08-17T13:09:48;14.73;;;8.60;;
74995;SDS011;63545;51.690;5.202;2023-08-17T13:12:13;17.13;;;8.67;;
74995;SDS011;63545;51.690;5.202;2023-08-17T13:14:39;14.10;;;8.73;;
74995;SDS011;63545;51.690;5.202;2023-08-17T13:17:04;14.30;;;9.17;;
74995;SDS011;63545;51.690;5.202;2023-08-17T13:19:29;16.97;;;8.60;;
74995;SDS011;63545;51.690;5.202;2023-08-17T13:21:55;15.40;;;9.00;;
74995;SDS011;63545;51.690;5.202;2023-08-17T13:24:20;15.20;;;8.77;;
74995;SDS011;63545;51.690;5.202;2023-08-17T13:26:45;16.63;;;9.27;;
74995;SDS011;63545;51.690;5.202;2023-08-17T13:29:11;16.90;;;8.63;;
74995;SDS011;63545;51.690;5.202;2023-08-17T13:31:36;13.27;;;8.30;;
74995;SDS011;63545;51.690;5.202;2023-08-17T13:34:01;14.87;;;8.13;;
74995;SDS011;63545;51.690;5.202;2023-08-17T13:36:28;16.25;;;8.25;;
74995;SDS011;63545;51.690;5.202;2023-08-17T13:38:53;16.77;;;8.33;;
74995;SDS011;63545;51.690;5.202;2023-08-17T13:41:19;15.23;;;8.80;;
74995;SDS011;63545;51.690;5.202;2023-08-17T13:43:44;15.93;;;8.33;;
74995;SDS011;63545;51.690;5.202;2023-08-17T13:46:09;17.47;;;8.37;;
74995;SDS011;63545;51.690;5.202;2023-08-17T13:48:35;17.17;;;7.80;;
74995;SDS011;63545;51.690;5.202;2023-08-17T13:51:00;16.60;;;8.60;;
74995;SDS011;63545;51.690;5.202;2023-08-17T13:53:25;14.63;;;8.43;;
74995;SDS011;63545;51.690;5.202;2023-08-17T13:55:51;16.07;;;8.43;;
74995;SDS011;63545;51.690;5.202;2023-08-17T13:58:16;14.40;;;8.27;;
74995;SDS011;63545;51.690;5.202;2023-08-17T14:00:42;16.07;;;8.07;;
74995;SDS011;63545;51.690;5.202;2023-08-17T14:03:07;18.27;;;7.93;;
74995;SDS011;63545;51.690;5.202;2023-08-17T14:05:33;14.77;;;8.93;;
74995;SDS011;63545;51.690;5.202;2023-08-17T14:07:58;13.67;;;7.73;;
74995;SDS011;63545;51.690;5.202;2023-08-17T14:10:23;14.10;;;8.60;;
74995;SDS011;63545;51.690;5.202;2023-08-17T14:12:49;17.23;;;8.23;;
74995;SDS011;63545;51.690;5.202;2023-08-17T14:15:14;15.93;;;9.10;;
74995;SDS011;63545;51.690;5.202;2023-08-17T14:17:40;15.43;;;8.23;;
74995;SDS011;63545;51.690;5.202;2023-08-17T14:20:05;12.43;;;8.30;;
74995;SDS011;63545;51.690;5.202;2023-08-17T14:22:31;14.90;;;7.80;;
74995;SDS011;63545;51.690;5.202;2023-08-17T14:24:57;14.52;;;8.80;;
74995;SDS011;63545;51.690;5.202;2023-08-17T14:27:24;15.77;;;9.15;;
74995;SDS011;63545;51.690;5.202;2023-08-17T14:29:49;13.73;;;8.50;;
74995;SDS011;63545;51.690;5.202;2023-08-17T14:32:15;17.40;;;8.67;;
74995;SDS011;63545;51.690;5.202;2023-08-17T14:34:40;16.13;;;8.30;;
74995;SDS011;63545;51.690;5.202;2023-08-17T14:37:05;14.93;;;8.70;;
74995;SDS011;63545;51.690;5.202;2023-08-17T14:39:31;13.40;;;8.83;;
74995;SDS011;63545;51.690;5.202;2023-08-17T14:41:56;16.47;;;8.50;;
74995;SDS011;63545;51.690;5.202;2023-08-17T14:44:21;16.73;;;9.00;;
74995;SDS011;63545;51.690;5.202;2023-08-17T14:46:47;15.67;;;8.70;;
74995;SDS011;63545;51.690;5.202;2023-08-17T14:49:12;14.70;;;9.00;;
74995;SDS011;63545;51.690;5.202;2023-08-17T14:51:38;14.40;;;9.27;;